Time;durP1;ratioP1;P1;durP2;ratioP2;P2;SDS_P1;SDS_P2;PMS_P1;PMS_P2;Temp;Humidity;BMP_temperature;BMP_pressure;BME280_temperature;BME280_humidity;BME280_pressure;Samples;Min_cycle;Max_cycle;Signal;HPM_P1;HPM_P2
2022/01/04 00:01:33;;;;;;;1.92;0.88;;;9.80;99.90;;;;;;5091852;28;20176;-63
2022/01/04 00:03:59;;;;;;;3.30;0.90;;;9.80;99.90;;;;;;5092774;28;20188;-63
2022/01/04 00:06:25;;;;;;;2.33;1.15;;;9.80;99.90;;;;;;5093066;28;20172;-63
2022/01/04 00:08:50;;;;;;;0.80;0.80;;;9.80;99.90;;;;;;5092705;28;20216;-63
2022/01/04 00:11:19;;;;;;;1.67;1.05;;;9.90;99.90;;;;;;5092891;28;20629;-63
2022/01/04 00:13:46;;;;;;;0.68;0.68;;;9.90;99.90;;;;;;5092812;28;20271;-63
2022/01/04 00:16:12;;;;;;;1.63;0.95;;;9.90;99.90;;;;;;5092685;28;20241;-63
2022/01/04 00:18:40;;;;;;;1.17;0.82;;;10.00;99.90;;;;;;5091130;28;20176;-63
2022/01/04 00:21:06;;;;;;;2.05;0.90;;;10.00;99.90;;;;;;5092678;28;20259;-64
2022/01/04 00:23:32;;;;;;;0.80;0.80;;;10.00;99.90;;;;;;5092448;28;20188;-64
2022/01/04 00:25:58;;;;;;;2.30;1.08;;;10.00;99.90;;;;;;5092436;28;20202;-64
2022/01/04 00:28:24;;;;;;;0.95;0.93;;;10.10;99.90;;;;;;5092105;28;20208;-63
2022/01/04 00:30:50;;;;;;;1.08;1.02;;;10.10;99.90;;;;;;5092140;28;20184;-64
2022/01/04 00:33:18;;;;;;;1.58;0.88;;;10.10;99.90;;;;;;5092114;28;20543;-63
2022/01/04 00:35:44;;;;;;;1.80;1.10;;;10.10;99.90;;;;;;5092396;28;20251;-63
2022/01/04 00:38:10;;;;;;;0.80;0.80;;;10.10;99.90;;;;;;5091978;28;20176;-64
2022/01/04 00:40:36;;;;;;;2.13;1.08;;;10.10;99.90;;;;;;5091057;28;20563;-64
2022/01/04 00:43:03;;;;;;;2.58;1.10;;;10.20;99.90;;;;;;5092339;28;20245;-63
2022/01/04 00:45:35;;;;;;;0.95;0.95;;;10.20;99.90;;;;;;5092198;28;20266;-63
2022/01/04 00:50:28;;;;;;;2.00;1.15;;;10.20;99.90;;;;;;5091791;28;20671;-64
2022/01/04 00:52:54;;;;;;;3.08;1.25;;;10.20;99.90;;;;;;5091705;28;20176;-63
2022/01/04 00:55:21;;;;;;;1.13;1.02;;;10.20;99.90;;;;;;5088417;28;20188;-64
2022/01/04 00:57:46;;;;;;;1.20;1.10;;;10.20;99.90;;;;;;5075920;28;20227;-64
2022/01/04 01:00:14;;;;;;;4.18;2.50;;;10.20;99.90;;;;;;5091512;28;20188;-64
2022/01/04 01:02:40;;;;;;;1.20;1.08;;;10.20;99.90;;;;;;5091298;28;20218;-64
2022/01/04 01:05:07;;;;;;;1.75;1.20;;;10.20;99.90;;;;;;5091950;28;20172;-64
2022/01/04 01:07:34;;;;;;;2.40;1.27;;;10.20;99.90;;;;;;5075598;28;20825;-64
2022/01/04 01:12:29;;;;;;;0.88;0.82;;;10.20;99.90;;;;;;5077598;28;20631;-64
2022/01/04 01:14:55;;;;;;;1.48;1.13;;;10.20;99.90;;;;;;5098280;28;20247;-64
2022/01/04 01:17:20;;;;;;;1.20;1.10;;;10.20;99.90;;;;;;5097948;28;20168;-64
2022/01/04 01:19:46;;;;;;;1.98;1.25;;;10.20;99.90;;;;;;5098604;28;20518;-63
2022/01/04 01:22:11;;;;;;;1.48;1.38;;;10.20;99.90;;;;;;5096747;28;20176;-64
2022/01/04 01:24:37;;;;;;;1.17;1.08;;;10.20;99.90;;;;;;5095769;28;20207;-64
2022/01/04 01:27:02;;;;;;;1.35;0.98;;;10.20;99.90;;;;;;5098549;28;20209;-64
2022/01/04 01:29:28;;;;;;;1.90;1.30;;;10.20;99.90;;;;;;5097462;28;20296;-64
2022/01/04 01:31:54;;;;;;;1.30;1.20;;;10.20;99.90;;;;;;5097729;28;20208;-64
2022/01/04 01:34:20;;;;;;;1.25;1.15;;;10.20;99.90;;;;;;5098319;28;20187;-64
2022/01/04 01:36:45;;;;;;;2.15;0.98;;;10.20;99.90;;;;;;5095805;28;20184;-64
2022/01/04 01:39:11;;;;;;;1.25;1.10;;;10.20;99.90;;;;;;5094810;28;20184;-64
2022/01/04 01:41:36;;;;;;;1.73;1.20;;;10.20;99.90;;;;;;5114175;28;20192;-64
2022/01/04 01:44:02;;;;;;;3.30;1.40;;;10.10;99.90;;;;;;5095500;28;20537;-64
2022/01/04 01:46:28;;;;;;;1.42;1.33;;;10.10;99.90;;;;;;5096109;28;20175;-64
2022/01/04 01:48:53;;;;;;;1.40;1.23;;;10.10;99.90;;;;;;5098806;28;20271;-64
2022/01/04 01:51:19;;;;;;;1.75;1.08;;;10.10;99.90;;;;;;5097454;28;20604;-64
2022/01/04 01:53:45;;;;;;;1.30;1.20;;;10.10;99.90;;;;;;5095778;28;20195;-64
2022/01/04 01:56:11;;;;;;;1.13;1.02;;;10.10;99.90;;;;;;5076905;28;20647;-64
2022/01/04 01:58:36;;;;;;;1.77;1.30;;;10.10;99.90;;;;;;5090312;28;20254;-64
2022/01/04 02:01:03;;;;;;;1.60;1.50;;;10.10;99.90;;;;;;5097810;28;20184;-63
2022/01/04 02:03:28;;;;;;;2.20;1.50;;;10.10;99.90;;;;;;5098091;28;20180;-64
2022/01/04 02:05:54;;;;;;;2.28;1.20;;;10.10;99.90;;;;;;5096712;28;20172;-64
2022/01/04 02:08:20;;;;;;;1.85;1.20;;;10.10;99.90;;;;;;5097732;28;20196;-64
2022/01/04 02:10:47;;;;;;;1.90;1.40;;;10.00;99.90;;;;;;5098146;28;20195;-64
2022/01/04 02:13:13;;;;;;;1.65;1.15;;;10.00;99.90;;;;;;5097860;28;20635;-64
2022/01/04 02:15:39;;;;;;;1.33;1.20;;;10.00;99.90;;;;;;5098134;28;20211;-64
2022/01/04 02:18:06;;;;;;;1.60;1.50;;;10.00;99.90;;;;;;5098105;28;20172;-64
2022/01/04 02:20:31;;;;;;;1.55;1.40;;;10.00;99.90;;;;;;5097807;28;20180;-64
2022/01/04 02:22:57;;;;;;;2.53;1.38;;;10.00;99.90;;;;;;5097781;28;20184;-64
2022/01/04 02:25:23;;;;;;;1.33;1.20;;;10.00;99.90;;;;;;5094330;28;20180;-64
2022/01/04 02:27:49;;;;;;;1.05;1.00;;;10.00;99.90;;;;;;5094662;28;20180;-64
2022/01/04 02:30:17;;;;;;;1.20;1.10;;;10.00;99.90;;;;;;5094387;28;20291;-64
2022/01/04 02:32:44;;;;;;;1.30;1.20;;;10.00;99.90;;;;;;5094601;28;20272;-63
2022/01/04 02:35:11;;;;;;;1.40;1.25;;;10.00;99.90;;;;;;5094237;28;20294;-64
2022/01/04 02:37:36;;;;;;;1.52;1.20;;;10.00;99.90;;;;;;5093224;28;20548;-63
2022/01/04 02:40:03;;;;;;;2.45;1.60;;;10.00;99.90;;;;;;5094296;28;20199;-64
2022/01/04 02:42:29;;;;;;;1.33;1.23;;;10.00;99.90;;;;;;5094376;28;20184;-64
2022/01/04 02:44:55;;;;;;;2.67;1.08;;;10.00;99.90;;;;;;5094567;28;20221;-63
2022/01/04 02:47:20;;;;;;;2.05;1.33;;;10.00;99.90;;;;;;5092671;28;20249;-63
2022/01/04 02:49:46;;;;;;;2.25;1.38;;;10.00;99.90;;;;;;5094023;28;20212;-63
2022/01/04 02:52:12;;;;;;;2.47;1.40;;;10.00;99.90;;;;;;5093394;28;20631;-63
2022/01/04 02:54:38;;;;;;;1.45;1.35;;;10.00;99.90;;;;;;5094378;28;20274;-63
2022/01/04 02:57:04;;;;;;;2.83;1.45;;;9.90;99.90;;;;;;5094138;28;20176;-63
2022/01/04 02:59:29;;;;;;;3.55;1.42;;;10.00;99.90;;;;;;5094143;28;20288;-64
2022/01/04 03:01:55;;;;;;;2.38;1.10;;;9.90;99.90;;;;;;5094131;28;20255;-64
2022/01/04 03:04:20;;;;;;;1.92;1.38;;;9.90;99.90;;;;;;5093955;28;20187;-64
2022/01/04 03:06:46;;;;;;;1.50;1.35;;;9.90;99.90;;;;;;5094371;28;20670;-64
2022/01/04 03:09:12;;;;;;;2.10;1.50;;;10.00;99.90;;;;;;5093551;28;20211;-64
2022/01/04 03:11:37;;;;;;;1.95;1.60;;;10.00;99.90;;;;;;5094292;28;20178;-63
2022/01/04 03:14:03;;;;;;;3.17;1.88;;;10.00;99.90;;;;;;5093685;28;20271;-64
2022/01/04 03:16:29;;;;;;;2.75;1.33;;;10.00;99.90;;;;;;5094079;28;20168;-63
2022/01/04 03:19:07;;;;;;;3.17;1.90;;;10.00;99.90;;;;;;5093598;28;20179;-64
2022/01/04 03:21:35;;;;;;;3.85;1.75;;;10.00;99.90;;;;;;5094064;28;20176;-64
2022/01/04 03:24:02;;;;;;;2.38;1.77;;;10.10;99.90;;;;;;5092697;28;20176;-64
2022/01/04 03:26:27;;;;;;;4.18;2.28;;;10.10;99.90;;;;;;5093200;28;20191;-63
2022/01/04 03:28:53;;;;;;;9.05;3.80;;;10.10;99.90;;;;;;5093762;28;20208;-63
2022/01/04 03:31:19;;;;;;;6.35;3.67;;;10.10;99.90;;;;;;5093246;28;20271;-64
2022/01/04 03:33:44;;;;;;;5.72;3.33;;;10.10;99.90;;;;;;5093153;28;20210;-64
2022/01/04 03:36:10;;;;;;;7.03;3.50;;;10.10;99.90;;;;;;5093509;28;20184;-64
2022/01/04 03:38:35;;;;;;;4.07;2.80;;;10.20;99.90;;;;;;5093072;28;20222;-63
2022/01/04 03:41:01;;;;;;;4.43;2.80;;;10.20;99.90;;;;;;5093087;28;20184;-63
2022/01/04 03:43:28;;;;;;;4.22;2.78;;;10.20;99.90;;;;;;5093132;28;20230;-64
2022/01/04 03:45:54;;;;;;;2.88;2.47;;;10.20;99.90;;;;;;5093102;28;20187;-63
2022/01/04 03:48:19;;;;;;;2.00;1.80;;;10.20;99.90;;;;;;5092939;28;20211;-64
2022/01/04 03:50:45;;;;;;;1.98;1.60;;;10.20;99.90;;;;;;5091770;28;20538;-64
2022/01/04 03:53:10;;;;;;;4.30;1.65;;;10.20;99.90;;;;;;5092883;28;20179;-63
2022/01/04 03:55:36;;;;;;;1.90;1.27;;;10.10;99.90;;;;;;5092853;28;20523;-63
2022/01/04 03:58:02;;;;;;;1.75;1.35;;;10.10;99.90;;;;;;5092725;28;20216;-64
2022/01/04 04:00:27;;;;;;;1.45;1.35;;;10.00;99.90;;;;;;5092722;28;20695;-64
2022/01/04 04:02:53;;;;;;;1.77;1.42;;;10.00;99.90;;;;;;5091465;28;20575;-64
2022/01/04 04:05:18;;;;;;;2.25;1.25;;;10.00;99.90;;;;;;5092854;28;20179;-64
2022/01/04 04:07:44;;;;;;;3.70;1.30;;;10.00;99.90;;;;;;5090948;28;20211;-64
2022/01/04 04:10:10;;;;;;;2.20;1.20;;;10.00;99.90;;;;;;5091891;28;20247;-64
2022/01/04 04:12:36;;;;;;;2.53;1.25;;;10.00;99.90;;;;;;5093018;28;20298;-64
2022/01/04 04:15:04;;;;;;;4.93;2.38;;;9.90;99.90;;;;;;5092759;28;20195;-63
2022/01/04 04:17:30;;;;;;;2.72;1.35;;;9.90;99.90;;;;;;5092453;28;20654;-63
2022/01/04 04:19:56;;;;;;;1.20;1.10;;;9.90;99.90;;;;;;5092347;28;20682;-63
2022/01/04 04:22:22;;;;;;;3.50;2.00;;;9.90;99.90;;;;;;5092635;28;20264;-63
2022/01/04 04:24:47;;;;;;;2.58;1.50;;;9.90;99.90;;;;;;5090925;28;20180;-63
2022/01/04 04:27:14;;;;;;;1.45;1.13;;;9.90;99.90;;;;;;5092790;28;20176;-63
2022/01/04 04:29:39;;;;;;;2.15;1.05;;;10.00;99.90;;;;;;5092499;28;20204;-63
2022/01/04 04:32:05;;;;;;;2.05;1.20;;;10.00;99.90;;;;;;5092422;28;20175;-63
2022/01/04 04:34:31;;;;;;;3.65;1.48;;;10.00;99.90;;;;;;5092229;28;20210;-63
2022/01/04 04:36:57;;;;;;;1.45;1.25;;;10.10;99.90;;;;;;5092200;28;20215;-63
2022/01/04 04:39:22;;;;;;;1.15;1.15;;;10.10;99.90;;;;;;5092078;28;20711;-63
2022/01/04 04:41:49;;;;;;;3.15;1.15;;;10.10;99.90;;;;;;5092208;28;20259;-63
2022/01/04 04:44:15;;;;;;;2.60;1.20;;;10.10;99.90;;;;;;5091310;28;20240;-63
2022/01/04 04:46:41;;;;;;;1.50;1.40;;;10.10;99.90;;;;;;5091575;28;20181;-63
2022/01/04 04:49:06;;;;;;;2.50;1.38;;;10.10;99.90;;;;;;5091627;28;20223;-63
2022/01/04 04:51:32;;;;;;;1.17;1.08;;;10.20;99.90;;;;;;5092395;28;20180;-63
2022/01/04 04:53:58;;;;;;;3.67;1.20;;;10.10;99.90;;;;;;5091883;28;20191;-63
2022/01/04 04:56:24;;;;;;;2.00;1.35;;;10.10;99.90;;;;;;5090468;28;20597;-64
2022/01/04 04:58:49;;;;;;;1.65;1.30;;;10.10;99.90;;;;;;5091723;28;20682;-63
2022/01/04 05:01:15;;;;;;;2.00;1.25;;;10.00;99.90;;;;;;5091895;28;20195;-63
2022/01/04 05:03:40;;;;;;;0.90;0.90;;;10.00;99.90;;;;;;5091566;28;20582;-63
2022/01/04 05:06:06;;;;;;;1.92;1.25;;;10.00;99.90;;;;;;5092202;28;20195;-63
2022/01/04 05:08:32;;;;;;;1.60;1.30;;;9.90;99.90;;;;;;5090887;28;20200;-63
2022/01/04 05:10:57;;;;;;;2.47;1.50;;;9.90;99.90;;;;;;5074625;28;20188;-63
2022/01/04 05:13:23;;;;;;;1.63;1.52;;;10.00;99.90;;;;;;5091750;28;20172;-63
2022/01/04 05:15:49;;;;;;;1.95;1.40;;;10.00;99.90;;;;;;5091589;28;20184;-63
2022/01/04 05:18:15;;;;;;;1.45;1.30;;;10.00;99.90;;;;;;5091607;28;20168;-64
2022/01/04 05:20:41;;;;;;;2.83;1.42;;;10.00;99.90;;;;;;5067517;28;20183;-63
2022/01/04 05:23:06;;;;;;;2.08;1.25;;;10.00;99.90;;;;;;5090184;28;20179;-63
2022/01/04 05:25:32;;;;;;;1.27;1.20;;;10.00;99.90;;;;;;5091808;28;20198;-63
2022/01/04 05:27:57;;;;;;;0.88;0.88;;;10.00;99.90;;;;;;5091430;28;20255;-63
2022/01/04 05:30:23;;;;;;;2.05;1.17;;;10.00;99.90;;;;;;5091847;28;20247;-63
2022/01/04 05:32:48;;;;;;;1.10;0.93;;;10.00;99.90;;;;;;5089969;28;20176;-63
2022/01/04 05:35:14;;;;;;;1.30;0.95;;;10.00;99.90;;;;;;5091579;28;20184;-64
2022/01/04 05:37:40;;;;;;;0.80;0.80;;;9.90;99.90;;;;;;5091549;28;20180;-64
2022/01/04 05:40:06;;;;;;;1.48;1.20;;;9.90;99.90;;;;;;5091172;28;20178;-63
2022/01/04 05:42:32;;;;;;;1.15;0.90;;;9.90;99.90;;;;;;5091413;28;20180;-63
2022/01/04 05:44:57;;;;;;;1.40;0.80;;;9.90;99.90;;;;;;5091288;28;20183;-63
2022/01/04 05:47:24;;;;;;;2.45;0.90;;;9.90;99.90;;;;;;5090939;28;20176;-63
2022/01/04 05:49:51;;;;;;;1.80;0.63;;;9.90;99.90;;;;;;5090995;28;20249;-63
2022/01/04 05:52:17;;;;;;;1.25;0.60;;;9.90;99.90;;;;;;5091130;28;20202;-63
2022/01/04 05:54:45;;;;;;;0.93;0.70;;;9.90;99.90;;;;;;5091564;28;20177;-63
2022/01/04 05:57:10;;;;;;;1.02;0.80;;;9.90;99.90;;;;;;5091509;28;20189;-63
2022/01/04 05:59:36;;;;;;;1.02;0.60;;;9.90;99.90;;;;;;5092015;28;20176;-63
2022/01/04 06:02:02;;;;;;;1.20;0.65;;;9.90;99.90;;;;;;5095197;28;20180;-63
2022/01/04 06:04:28;;;;;;;0.55;0.55;;;9.90;99.90;;;;;;5095176;28;20176;-63
2022/01/04 06:06:54;;;;;;;0.68;0.68;;;9.90;99.90;;;;;;5094828;28;20244;-63
2022/01/04 06:09:25;;;;;;;0.75;0.75;;;9.90;99.90;;;;;;5093292;28;20618;-63
2022/01/04 06:17:03;;;;;;;0.95;0.93;;;9.90;99.90;;;;;;5094989;28;20191;-63
2022/01/04 06:19:28;;;;;;;1.13;0.88;;;9.90;99.90;;;;;;5094222;28;20191;-63
2022/01/04 06:21:54;;;;;;;0.75;0.60;;;10.00;99.90;;;;;;5094948;28;20176;-63
2022/01/04 06:24:19;;;;;;;0.65;0.63;;;10.00;99.90;;;;;;5094724;28;20188;-63
2022/01/04 06:26:45;;;;;;;0.50;0.50;;;10.00;99.90;;;;;;5094325;28;20259;-62
2022/01/04 06:29:11;;;;;;;0.55;0.55;;;10.00;99.90;;;;;;5094330;28;20218;-63
2022/01/04 06:31:39;;;;;;;0.65;0.65;;;10.00;99.90;;;;;;5094575;28;20541;-63
2022/01/04 06:34:04;;;;;;;4.07;1.40;;;10.00;99.90;;;;;;5084832;28;20187;-63
2022/01/04 06:36:30;;;;;;;1.15;0.60;;;10.10;99.90;;;;;;5094746;28;20168;-63
2022/01/04 06:38:55;;;;;;;0.60;0.60;;;10.10;99.90;;;;;;5094513;28;20192;-63
2022/01/04 06:41:21;;;;;;;0.75;0.63;;;10.10;99.90;;;;;;5094092;28;20267;-63
2022/01/04 06:43:47;;;;;;;0.52;0.52;;;10.10;99.90;;;;;;5093718;28;20282;-62
2022/01/04 06:46:13;;;;;;;1.52;1.40;;;10.10;99.90;;;;;;5094361;28;20180;-63
2022/01/04 06:48:40;;;;;;;1.65;1.33;;;10.10;99.90;;;;;;5094005;28;20206;-63
2022/01/04 06:51:05;;;;;;;1.00;1.00;;;10.20;99.90;;;;;;5092324;28;20704;-63
2022/01/04 06:53:31;;;;;;;0.65;0.65;;;10.20;99.90;;;;;;5094163;28;20180;-63
2022/01/04 06:55:57;;;;;;;1.13;1.13;;;10.20;99.90;;;;;;5093202;28;20187;-64
2022/01/04 06:58:22;;;;;;;3.25;1.55;;;10.20;99.90;;;;;;5093372;28;20212;-63
2022/01/04 07:00:48;;;;;;;2.60;2.40;;;10.20;99.90;;;;;;5094009;28;20180;-63
2022/01/04 07:03:14;;;;;;;2.25;1.73;;;10.30;99.90;;;;;;5092954;28;20193;-63
2022/01/04 07:05:40;;;;;;;1.90;1.80;;;10.30;99.90;;;;;;5093939;28;20188;-64
2022/01/04 07:08:05;;;;;;;1.73;1.63;;;10.30;99.90;;;;;;5093965;28;20173;-63
2022/01/04 07:10:31;;;;;;;0.60;0.60;;;10.30;99.90;;;;;;5093353;28;20283;-63
2022/01/04 07:12:56;;;;;;;1.05;0.88;;;10.30;99.90;;;;;;5094048;28;20175;-63
2022/01/04 07:15:22;;;;;;;0.90;0.63;;;10.30;99.90;;;;;;5093608;28;20192;-63
2022/01/04 07:17:48;;;;;;;1.05;0.68;;;10.40;99.90;;;;;;5093459;28;20186;-63
2022/01/04 07:20:13;;;;;;;2.15;0.80;;;10.40;99.90;;;;;;5093424;28;20558;-62
2022/01/04 07:22:39;;;;;;;0.95;0.68;;;10.40;99.90;;;;;;5094006;28;20263;-63
2022/01/04 07:25:06;;;;;;;1.35;0.60;;;10.40;99.90;;;;;;5093344;28;20208;-62
2022/01/04 07:27:31;;;;;;;0.63;0.63;;;10.50;99.90;;;;;;5092797;28;20532;-63
2022/01/04 07:29:57;;;;;;;0.88;0.80;;;10.50;99.90;;;;;;5093291;28;20299;-61
2022/01/04 07:32:23;;;;;;;0.80;0.80;;;10.50;99.90;;;;;;5093016;28;20176;-60
2022/01/04 07:34:48;;;;;;;3.40;0.73;;;10.50;99.90;;;;;;5093189;28;20533;-61
2022/01/04 07:37:14;;;;;;;0.70;0.70;;;10.50;99.90;;;;;;5093169;28;20681;-60
2022/01/04 07:39:40;;;;;;;1.30;0.88;;;10.60;99.90;;;;;;5093438;28;20187;-60
2022/01/04 07:42:05;;;;;;;1.33;1.00;;;10.60;99.90;;;;;;5093370;28;20176;-62
2022/01/04 07:44:31;;;;;;;2.97;0.68;;;10.60;99.90;;;;;;5091953;28;20658;-61
2022/01/04 07:46:57;;;;;;;0.85;0.85;;;10.60;99.90;;;;;;5092341;28;20245;-63
2022/01/04 07:49:23;;;;;;;1.00;0.98;;;10.60;99.90;;;;;;5092895;28;20265;-61
2022/01/04 07:51:48;;;;;;;1.88;1.20;;;10.60;99.90;;;;;;5093150;28;20183;-62
2022/01/04 07:54:14;;;;;;;1.35;0.90;;;10.70;99.90;;;;;;5092772;28;20177;-62
2022/01/04 07:56:39;;;;;;;1.15;0.70;;;10.70;99.90;;;;;;5092603;28;20184;-62
2022/01/04 07:59:05;;;;;;;0.77;0.75;;;10.70;99.90;;;;;;5092974;28;20216;-62
2022/01/04 08:01:31;;;;;;;1.45;1.30;;;10.70;99.90;;;;;;5092410;28;20647;-61
2022/01/04 08:03:58;;;;;;;2.90;0.80;;;10.70;99.90;;;;;;5093065;28;20194;-62
2022/01/04 08:06:23;;;;;;;2.05;0.85;;;10.80;99.90;;;;;;5092792;28;20176;-62
2022/01/04 08:08:49;;;;;;;1.40;0.70;;;10.80;99.90;;;;;;5092793;28;20269;-61
2022/01/04 08:11:15;;;;;;;1.08;0.93;;;10.80;99.90;;;;;;5092496;28;20176;-62
2022/01/04 08:13:40;;;;;;;3.40;2.55;;;10.90;99.90;;;;;;5092855;28;20292;-62
2022/01/04 08:16:06;;;;;;;1.80;1.70;;;10.90;99.90;;;;;;5091971;28;20176;-61
2022/01/04 08:18:31;;;;;;;1.52;1.42;;;10.90;99.90;;;;;;5092824;28;20184;-62
2022/01/04 08:20:58;;;;;;;2.20;2.00;;;11.00;99.90;;;;;;5092256;28;20183;-61
2022/01/04 08:23:26;;;;;;;1.25;1.15;;;11.00;99.90;;;;;;5091343;28;20191;-62
2022/01/04 08:25:52;;;;;;;0.95;0.95;;;11.00;99.90;;;;;;5092348;28;20238;-62
2022/01/04 08:28:17;;;;;;;1.42;1.33;;;11.10;99.90;;;;;;5092125;28;20180;-62
2022/01/04 08:30:43;;;;;;;2.83;1.80;;;11.10;99.90;;;;;;5092549;28;20207;-62
2022/01/04 08:33:11;;;;;;;3.35;2.55;;;11.20;99.90;;;;;;5091908;28;20180;-62
2022/01/04 08:35:38;;;;;;;1.60;1.50;;;11.20;99.90;;;;;;5092594;28;20647;-62
2022/01/04 08:38:05;;;;;;;2.35;1.20;;;11.20;99.90;;;;;;5091151;28;20305;-62
2022/01/04 08:40:31;;;;;;;3.45;2.03;;;11.20;99.90;;;;;;5092219;28;20207;-62
2022/01/04 08:42:56;;;;;;;2.33;1.70;;;11.20;99.90;;;;;;5092300;28;20273;-62
2022/01/04 08:45:23;;;;;;;1.48;1.38;;;11.30;99.90;;;;;;5092657;28;20176;-62
2022/01/04 08:47:49;;;;;;;2.50;1.63;;;11.30;99.90;;;;;;5091801;28;20551;-62
2022/01/04 08:50:15;;;;;;;6.55;3.30;;;11.30;99.90;;;;;;5091939;28;20304;-62
2022/01/04 08:52:41;;;;;;;1.48;1.38;;;11.30;99.90;;;;;;5092046;28;20325;-62
2022/01/04 08:55:08;;;;;;;2.58;0.93;;;11.30;99.90;;;;;;5091488;28;20187;-62
2022/01/04 08:57:33;;;;;;;1.40;1.23;;;11.40;99.90;;;;;;5091549;28;20219;-62
2022/01/04 08:59:59;;;;;;;1.35;0.90;;;11.40;99.90;;;;;;5091834;28;20231;-62
2022/01/04 09:02:25;;;;;;;1.08;0.98;;;11.40;99.90;;;;;;5092191;28;20600;-62
2022/01/04 09:04:51;;;;;;;1.33;1.23;;;11.40;99.90;;;;;;5092129;28;20659;-62
2022/01/04 09:07:17;;;;;;;1.40;1.30;;;11.50;99.90;;;;;;5091101;28;20218;-63
2022/01/04 09:09:42;;;;;;;1.30;1.08;;;11.50;99.90;;;;;;5091506;28;20232;-62
2022/01/04 09:12:08;;;;;;;2.58;1.23;;;11.50;99.90;;;;;;5090626;28;20509;-62
2022/01/04 09:14:44;;;;;;;1.67;1.30;;;11.40;99.90;;;;;;5089937;28;20192;-62
2022/01/04 09:19:55;;;;;;;1.45;1.10;;;11.40;99.90;;;;;;5091935;28;20186;-61
2022/01/04 09:22:20;;;;;;;2.20;1.30;;;11.40;99.90;;;;;;5092040;28;20179;-61
2022/01/04 09:24:46;;;;;;;1.63;0.88;;;11.50;99.90;;;;;;5091419;28;20708;-61
2022/01/04 09:27:12;;;;;;;1.55;1.10;;;11.50;99.90;;;;;;5091786;28;20252;-61
2022/01/04 09:29:37;;;;;;;0.88;0.88;;;11.50;99.90;;;;;;5091579;28;20247;-61
2022/01/04 09:32:05;;;;;;;1.00;0.90;;;11.50;99.90;;;;;;5091614;28;20183;-62
2022/01/04 09:34:30;;;;;;;1.30;1.20;;;11.50;99.90;;;;;;5093629;28;20176;-61
2022/01/04 09:36:56;;;;;;;2.17;1.05;;;11.50;99.90;;;;;;5095985;28;20671;-61
2022/01/04 09:39:24;;;;;;;1.50;1.40;;;11.50;99.90;;;;;;5095282;28;20188;-62
2022/01/04 09:41:52;;;;;;;3.35;1.08;;;11.50;99.90;;;;;;5095689;28;20211;-61
2022/01/04 09:44:18;;;;;;;1.67;0.98;;;11.50;99.90;;;;;;5094784;28;20550;-61
2022/01/04 09:46:43;;;;;;;1.30;1.10;;;11.50;99.90;;;;;;5096039;28;20169;-61
2022/01/04 09:49:11;;;;;;;4.00;1.63;;;11.50;99.90;;;;;;5095080;28;20214;-62
2022/01/04 09:51:39;;;;;;;3.47;1.55;;;11.60;99.90;;;;;;5095899;28;20173;-61
2022/01/04 09:54:05;;;;;;;2.83;1.15;;;11.60;99.90;;;;;;5095545;28;20180;-61
2022/01/04 09:56:31;;;;;;;1.10;0.95;;;11.60;99.90;;;;;;5095628;28;20172;-61
2022/01/04 09:58:56;;;;;;;96.32;49.90;;;11.60;99.90;;;;;;5094818;28;20231;-59
2022/01/04 10:01:25;;;;;;;2.08;1.30;;;11.80;99.90;;;;;;5095370;28;20191;-62
2022/01/04 10:03:51;;;;;;;3.47;1.50;;;12.00;99.90;;;;;;5095319;28;20184;-62
2022/01/04 10:06:17;;;;;;;2.55;1.02;;;12.00;99.90;;;;;;5095260;28;20176;-62
2022/01/04 10:08:54;;;;;;;1.45;1.13;;;11.90;99.90;;;;;;5095240;28;20277;-62
2022/01/04 10:11:35;;;;;;;1.73;1.40;;;11.80;99.90;;;;;;5094910;28;20647;-62
2022/01/04 10:14:21;;;;;;;1.50;1.15;;;11.80;99.90;;;;;;5092904;28;20192;-62
2022/01/04 10:17:02;;;;;;;1.90;1.52;;;11.90;99.90;;;;;;5081392;28;20198;-63
2022/01/04 10:19:32;;;;;;;3.03;1.70;;;11.90;99.90;;;;;;5094347;28;20188;-63
2022/01/04 10:22:12;;;;;;;1.95;1.30;;;11.90;99.90;;;;;;5095275;28;20199;-62
2022/01/04 10:24:38;;;;;;;2.80;1.50;;;11.90;99.90;;;;;;5094887;28;20225;-63
2022/01/04 10:27:22;;;;;;;2.13;1.92;;;11.90;99.90;;;;;;5095027;28;20164;-62
2022/01/04 10:29:48;;;;;;;2.60;1.30;;;11.90;99.90;;;;;;5094254;28;20267;-63
2022/01/04 10:32:14;;;;;;;2.55;1.10;;;11.90;99.90;;;;;;5094420;28;20507;-63
2022/01/04 10:34:49;;;;;;;1.85;1.30;;;12.00;99.90;;;;;;5094496;28;20195;-62
2022/01/04 10:37:37;;;;;;;1.85;1.65;;;12.00;99.90;;;;;;5093244;28;20643;-63
2022/01/04 10:40:08;;;;;;;1.30;1.20;;;12.00;99.90;;;;;;5094608;28;20635;-63
2022/01/04 10:42:34;;;;;;;3.83;1.50;;;12.00;99.90;;;;;;5093983;28;20180;-62
2022/01/04 10:45:19;;;;;;;1.95;1.50;;;12.00;99.90;;;;;;5093068;28;20175;-62
2022/01/04 10:47:44;;;;;;;1.40;1.30;;;12.00;99.90;;;;;;5080318;28;20205;-62
2022/01/04 10:50:10;;;;;;;1.38;1.27;;;12.00;99.90;;;;;;5093743;28;20215;-62
2022/01/04 10:52:35;;;;;;;2.08;1.10;;;12.00;99.90;;;;;;5093978;28;20171;-62
2022/01/04 10:55:14;;;;;;;2.25;1.50;;;11.90;99.90;;;;;;5094438;28;20180;-62
2022/01/04 10:57:40;;;;;;;1.38;1.08;;;11.90;99.90;;;;;;5092539;28;20218;-62
2022/01/04 11:00:20;;;;;;;1.95;1.30;;;11.90;99.90;;;;;;5101626;28;20188;-62
2022/01/04 11:02:46;;;;;;;1.95;1.08;;;11.90;99.90;;;;;;5074309;28;20185;-63
2022/01/04 11:05:14;;;;;;;2.45;0.90;;;11.80;99.90;;;;;;5078058;28;20820;-62
2022/01/04 11:08:09;;;;;;;3.72;1.20;;;11.80;99.90;;;;;;5093892;28;20172;-63
2022/01/04 11:10:36;;;;;;;1.38;1.20;;;11.80;99.90;;;;;;5094193;28;20569;-63
2022/01/04 11:13:03;;;;;;;2.67;1.30;;;11.80;99.90;;;;;;5093774;28;20180;-62
2022/01/04 11:15:30;;;;;;;2.17;1.80;;;11.80;99.90;;;;;;5094042;28;20176;-62
2022/01/04 11:17:56;;;;;;;5.90;3.30;;;11.80;99.90;;;;;;5092834;28;20172;-62
2022/01/04 11:20:23;;;;;;;1.88;1.45;;;11.80;99.90;;;;;;5094033;28;20188;-63
2022/01/04 11:22:50;;;;;;;2.92;1.67;;;11.80;99.90;;;;;;5093620;28;20180;-62
2022/01/04 11:25:21;;;;;;;1.45;1.25;;;11.70;99.90;;;;;;5094298;28;20184;-62
2022/01/04 11:27:47;;;;;;;1.88;1.40;;;11.70;99.90;;;;;;5094029;28;20179;-62
2022/01/04 11:30:23;;;;;;;3.78;1.60;;;11.70;99.90;;;;;;5094573;28;20615;-62
2022/01/04 11:32:55;;;;;;;2.10;1.65;;;11.70;99.90;;;;;;5093914;28;20314;-63
2022/01/04 11:35:22;;;;;;;2.45;1.48;;;11.70;99.90;;;;;;5093896;28;20784;-63
2022/01/04 11:37:58;;;;;;;3.08;1.52;;;11.70;99.90;;;;;;5093453;28;20233;-62
2022/01/04 11:40:25;;;;;;;3.50;1.45;;;11.70;99.90;;;;;;5089056;28;20172;-62
2022/01/04 11:42:52;;;;;;;2.42;1.40;;;11.70;99.90;;;;;;5089125;28;20313;-62
2022/01/04 11:45:38;;;;;;;2.35;1.55;;;11.70;99.90;;;;;;5092843;28;20575;-61
2022/01/04 11:48:04;;;;;;;3.47;1.70;;;11.70;99.90;;;;;;5073622;28;20532;-61
2022/01/04 11:50:36;;;;;;;2.17;1.50;;;11.70;99.90;;;;;;5081192;28;20211;-61
2022/01/04 11:53:08;;;;;;;4.18;1.60;;;11.70;99.90;;;;;;5093017;28;20217;-61
2022/01/04 11:55:37;;;;;;;2.05;1.80;;;11.60;99.90;;;;;;5093506;28;20199;-61
2022/01/04 11:58:14;;;;;;;3.15;1.70;;;11.70;99.90;;;;;;5093067;28;20269;-62
2022/01/04 12:00:45;;;;;;;4.53;1.50;;;11.60;99.90;;;;;;5093174;28;20271;-61
2022/01/04 12:03:18;;;;;;;2.53;1.85;;;11.60;99.90;;;;;;5092805;28;20266;-61
2022/01/04 12:05:55;;;;;;;2.33;1.75;;;11.60;99.90;;;;;;5092971;28;20176;-61
2022/01/04 12:08:24;;;;;;;2.75;1.70;;;11.60;99.90;;;;;;5096231;28;20232;-63
2022/01/04 12:10:51;;;;;;;4.10;1.42;;;11.60;99.90;;;;;;5095711;28;20195;-62
2022/01/04 12:13:19;;;;;;;1.67;1.33;;;11.60;99.90;;;;;;5092394;28;20182;-62
2022/01/04 12:16:02;;;;;;;1.77;1.55;;;11.60;99.90;;;;;;5092936;28;20183;-61
2022/01/04 12:18:36;;;;;;;1.85;1.55;;;11.60;99.90;;;;;;5093039;28;20186;-61
2022/01/04 12:21:13;;;;;;;2.65;1.65;;;11.50;99.90;;;;;;5092595;28;20265;-61
2022/01/04 12:23:39;;;;;;;11.32;3.42;;;11.50;99.90;;;;;;5092705;28;20200;-61
2022/01/04 12:26:11;;;;;;;5.53;2.47;;;11.50;99.90;;;;;;5092822;28;20256;-61
2022/01/04 12:28:39;;;;;;;3.63;1.80;;;11.50;99.90;;;;;;5092771;28;20176;-61
2022/01/04 12:31:17;;;;;;;2.67;1.88;;;11.40;99.90;;;;;;5093227;28;20176;-61
2022/01/04 12:33:54;;;;;;;3.72;2.08;;;11.40;99.90;;;;;;5091274;28;20536;-61
2022/01/04 12:36:37;;;;;;;2.72;1.80;;;11.30;99.90;;;;;;5092656;28;20413;-61
2022/01/04 12:39:14;;;;;;;3.50;1.70;;;11.30;99.90;;;;;;5072817;28;20666;-61
2022/01/04 12:41:42;;;;;;;50.88;28.88;;;11.20;99.90;;;;;;5074669;28;20207;-60
2022/01/04 12:44:10;;;;;;;2.15;1.60;;;11.20;99.90;;;;;;5092831;28;20322;-61
2022/01/04 12:46:39;;;;;;;2.15;1.20;;;11.00;99.90;;;;;;5092142;28;20633;-61
2022/01/04 12:49:08;;;;;;;1.48;0.70;;;10.90;99.90;;;;;;5092825;28;20203;-61
2022/01/04 12:51:44;;;;;;;0.80;0.80;;;10.60;99.90;;;;;;5092386;28;20164;-60
2022/01/04 12:54:11;;;;;;;6.40;1.33;;;10.40;99.90;;;;;;5071874;28;20207;-60
2022/01/04 12:56:41;;;;;;;2.88;0.93;;;10.20;99.90;;;;;;5071083;28;20180;-60
2022/01/04 12:59:07;;;;;;;14.65;1.77;;;10.00;99.90;;;;;;5092247;28;20705;-60
2022/01/04 13:01:33;;;;;;;14.13;1.98;;;9.70;99.90;;;;;;5089776;28;20614;-60